Time;durP1;ratioP1;P1;durP2;ratioP2;P2;SDS_P1;SDS_P2;PMS_P1;PMS_P2;Temp;Humidity;BMP_temperature;BMP_pressure;BME280_temperature;BME280_humidity;BME280_pressure;Samples;Min_cycle;Max_cycle;Signal;HPM_P1;HPM_P2
2023/02/25 00:01:47;;;;;;;;;;;;;;;19.36;43.08;94301.63;10472127;28;2179;-50
2023/02/25 00:06:54;;;;;;;;;;;;;;;19.36;42.72;94301.63;10471468;28;2151;-47
2023/02/25 00:11:55;;;;;;;;;;;;;;;19.33;42.72;94304.84;10469959;28;2127;-51
2023/02/25 00:16:56;;;;;;;;;;;;;;;19.32;42.40;94305.91;10469063;28;2282;-50
2023/02/25 00:21:57;;;;;;;;;;;;;;;19.28;42.73;94308.34;10460339;28;2186;-52
2023/02/25 00:27:00;;;;;;;;;;;;;;;19.27;42.27;94313.88;10474593;28;2116;-49
2023/02/25 00:32:01;;;;;;;;;;;;;;;19.26;42.37;94328.91;10452561;28;2203;-51
2023/02/25 00:37:03;;;;;;;;;;;;;;;19.22;42.42;94327.94;10454917;28;2131;-52
2023/02/25 00:42:04;;;;;;;;;;;;;;;19.22;42.50;94330.56;10474699;28;2204;-53
2023/02/25 00:47:05;;;;;;;;;;;;;;;19.19;42.37;94336.41;10459109;28;2165;-50
2023/02/25 00:52:06;;;;;;;;;;;;;;;19.17;42.29;94349.06;10469690;28;2129;-49
2023/02/25 00:57:06;;;;;;;;;;;;;;;19.17;42.22;94364.81;10479641;28;2127;-50
2023/02/25 01:02:07;;;;;;;;;;;;;;;19.16;42.26;94373.00;10469105;28;2127;-52
2023/02/25 01:07:08;;;;;;;;;;;;;;;19.12;42.17;94362.31;10472512;28;2111;-52
2023/02/25 01:12:08;;;;;;;;;;;;;;;19.12;41.91;94351.81;10469140;28;2140;-51
2023/02/25 01:17:08;;;;;;;;;;;;;;;19.10;41.78;94361.81;10466656;28;2194;-52
2023/02/25 01:22:09;;;;;;;;;;;;;;;19.07;41.72;94365.06;10469409;28;2254;-50
2023/02/25 01:27:11;;;;;;;;;;;;;;;19.08;41.73;94369.22;10468365;28;2231;-51
2023/02/25 01:32:12;;;;;;;;;;;;;;;19.08;41.66;94361.34;10474750;28;2363;-48
2023/02/25 01:37:16;;;;;;;;;;;;;;;19.06;41.34;94358.22;10446926;28;2209;-51
2023/02/25 01:42:16;;;;;;;;;;;;;;;19.04;41.42;94357.75;10467676;28;2517;-52
2023/02/25 01:47:18;;;;;;;;;;;;;;;19.03;41.28;94369.34;10464823;28;2188;-50
2023/02/25 01:52:19;;;;;;;;;;;;;;;19.01;41.30;94370.72;10473646;28;2145;-52
2023/02/25 01:57:22;;;;;;;;;;;;;;;19.01;41.30;94360.19;10474317;28;2205;-54
2023/02/25 02:02:23;;;;;;;;;;;;;;;18.99;40.87;94368.38;10438701;28;2290;-49
2023/02/25 02:07:23;;;;;;;;;;;;;;;18.98;40.97;94366.81;10473106;28;2207;-53
2023/02/25 02:12:24;;;;;;;;;;;;;;;18.96;40.81;94368.22;10473177;28;2186;-51
2023/02/25 02:17:30;;;;;;;;;;;;;;;18.96;40.84;94373.47;10461103;28;2194;-52
2023/02/25 02:22:34;;;;;;;;;;;;;;;18.94;40.66;94372.97;10467274;28;2196;-51
2023/02/25 02:27:50;;;;;;;;;;;;;;;18.92;40.53;94373.25;10446820;28;2184;-51
2023/02/25 02:32:54;;;;;;;;;;;;;;;18.90;40.57;94362.28;10450765;28;2128;-54
2023/02/25 02:37:59;;;;;;;;;;;;;;;18.88;40.55;94356.53;10457189;28;2229;-53
2023/02/25 02:42:59;;;;;;;;;;;;;;;18.87;40.24;94365.50;10469208;28;2119;-49
2023/02/25 02:48:30;;;;;;;;;;;;;;;18.86;40.00;94378.91;10474168;28;2193;-50
2023/02/25 02:53:31;;;;;;;;;;;;;;;18.82;39.73;94373.47;10458399;28;2175;-51
2023/02/25 02:58:32;;;;;;;;;;;;;;;18.81;39.82;94365.91;10477921;28;2220;-53
2023/02/25 03:03:35;;;;;;;;;;;;;;;18.79;39.41;94368.81;10472874;28;2219;-52
2023/02/25 03:08:43;;;;;;;;;;;;;;;18.77;39.32;94373.59;10475279;28;2142;-52
2023/02/25 03:13:45;;;;;;;;;;;;;;;18.77;39.29;94378.84;10469588;28;2187;-49
2023/02/25 03:18:58;;;;;;;;;;;;;;;18.76;38.66;94366.00;10469831;28;2195;-50
2023/02/25 03:23:59;;;;;;;;;;;;;;;18.75;38.95;94380.19;10458255;28;2124;-53
2023/02/25 03:29:00;;;;;;;;;;;;;;;18.73;38.68;94370.00;10480740;28;2170;-50
2023/02/25 03:34:06;;;;;;;;;;;;;;;18.72;38.74;94381.56;10478539;28;2147;-50
2023/02/25 03:39:08;;;;;;;;;;;;;;;18.71;38.46;94387.91;10469007;28;2207;-52
2023/02/25 03:44:14;;;;;;;;;;;;;;;18.72;38.95;94384.19;10452693;28;2141;-53
2023/02/25 03:49:17;;;;;;;;;;;;;;;18.70;38.51;94381.06;10477125;28;2294;-52
2023/02/25 03:54:18;;;;;;;;;;;;;;;18.69;38.26;94393.41;10479891;28;2178;-50
2023/02/25 03:59:18;;;;;;;;;;;;;;;18.69;38.24;94397.91;10455556;28;2166;-50
2023/02/25 04:04:18;;;;;;;;;;;;;;;18.67;38.45;94394.78;10470601;28;2192;-53
2023/02/25 04:09:19;;;;;;;;;;;;;;;18.65;38.38;94402.94;10460931;28;2205;-51
2023/02/25 04:14:19;;;;;;;;;;;;;;;18.66;38.11;94409.78;10470289;28;2165;-50
2023/02/25 04:19:20;;;;;;;;;;;;;;;18.66;38.69;94409.00;10467328;28;2203;-52
2023/02/25 04:24:21;;;;;;;;;;;;;;;18.65;38.50;94415.28;10472663;28;2333;-49
2023/02/25 04:29:22;;;;;;;;;;;;;;;18.64;38.55;94419.00;10474913;28;2170;-53
2023/02/25 04:34:22;;;;;;;;;;;;;;;18.62;38.30;94406.19;10480342;28;2280;-50
2023/02/25 04:39:23;;;;;;;;;;;;;;;18.62;38.18;94423.75;10464780;28;2512;-53
2023/02/25 04:44:26;;;;;;;;;;;;;;;18.61;38.23;94414.31;10476039;28;2175;-52
2023/02/25 04:49:26;;;;;;;;;;;;;;;18.59;38.25;94416.47;10464471;28;2161;-50
2023/02/25 04:54:27;;;;;;;;;;;;;;;18.58;38.02;94423.59;10480264;28;2313;-50
2023/02/25 04:59:27;;;;;;;;;;;;;;;18.57;38.11;94426.47;10465975;28;2187;-49
2023/02/25 05:04:28;;;;;;;;;;;;;;;18.57;38.22;94426.47;10462864;28;2159;-52
2023/02/25 05:09:29;;;;;;;;;;;;;;;18.57;38.74;94426.47;10466138;28;2147;-49
2023/02/25 05:14:29;;;;;;;;;;;;;;;18.60;38.97;94426.69;10472655;28;2204;-51
2023/02/25 05:19:29;;;;;;;;;;;;;;;18.68;38.83;94433.09;10462556;28;2147;-50
2023/02/25 05:24:30;;;;;;;;;;;;;;;18.78;38.67;94450.47;10466891;28;2207;-50
2023/02/25 05:29:30;;;;;;;;;;;;;;;18.86;38.52;94455.81;10458280;28;2178;-47
2023/02/25 05:34:31;;;;;;;;;;;;;;;18.94;38.27;94457.00;10456916;28;2160;-53
2023/02/25 05:39:32;;;;;;;;;;;;;;;19.01;38.27;94463.41;10466653;28;2236;-52
2023/02/25 05:44:32;;;;;;;;;;;;;;;19.08;38.09;94465.63;10462833;28;2280;-52
2023/02/25 05:49:33;;;;;;;;;;;;;;;19.15;37.74;94466.00;10465806;28;2182;-54
2023/02/25 05:54:34;;;;;;;;;;;;;;;19.19;37.53;94474.84;10465649;28;2180;-50
2023/02/25 05:59:35;;;;;;;;;;;;;;;19.26;37.11;94483.13;10465458;28;2430;-54
2023/02/25 06:04:37;;;;;;;;;;;;;;;19.28;37.36;94483.59;10470539;28;2166;-52
2023/02/25 06:09:38;;;;;;;;;;;;;;;19.30;37.32;94487.50;10465257;28;2457;-52
2023/02/25 06:14:39;;;;;;;;;;;;;;;19.32;37.05;94487.97;10469248;28;2174;-50
2023/02/25 06:19:39;;;;;;;;;;;;;;;19.35;37.01;94479.50;10467203;28;2184;-50
2023/02/25 06:24:39;;;;;;;;;;;;;;;19.39;36.83;94493.63;10468281;28;2195;-52
2023/02/25 06:29:40;;;;;;;;;;;;;;;19.42;36.82;94494.88;10466073;28;2202;-53
2023/02/25 06:34:41;;;;;;;;;;;;;;;19.42;36.66;94495.66;10459388;28;2172;-50
2023/02/25 06:39:41;;;;;;;;;;;;;;;19.45;36.76;94512.69;10470614;28;2333;-51
2023/02/25 06:44:42;;;;;;;;;;;;;;;19.47;36.75;94511.31;10481179;28;1985;-52
2023/02/25 06:49:43;;;;;;;;;;;;;;;19.49;36.63;94511.78;10473849;28;1972;-50
2023/02/25 06:54:44;;;;;;;;;;;;;;;19.49;36.84;94514.41;10471735;28;2242;-54
2023/02/25 06:59:44;;;;;;;;;;;;;;;19.54;36.33;94531.19;10449183;28;1991;-50
2023/02/25 07:04:45;;;;;;;;;;;;;;;19.55;36.16;94524.84;10475694;28;1951;-53
2023/02/25 07:09:45;;;;;;;;;;;;;;;19.58;36.40;94521.63;10469097;28;2039;-49
2023/02/25 07:14:46;;;;;;;;;;;;;;;19.60;35.84;94522.84;10478940;28;2042;-53
2023/02/25 07:19:47;;;;;;;;;;;;;;;19.62;35.77;94527.84;10469041;28;2036;-50
2023/02/25 07:24:50;;;;;;;;;;;;;;;19.65;35.98;94525.38;10472048;28;2374;-50
2023/02/25 07:29:54;;;;;;;;;;;;;;;19.68;35.91;94522.16;10468555;28;1964;-54
2023/02/25 07:34:55;;;;;;;;;;;;;;;19.68;35.73;94516.13;10466306;28;1990;-51
2023/02/25 07:40:01;;;;;;;;;;;;;;;19.71;35.80;94524.19;10478324;28;1935;-51
2023/02/25 07:45:04;;;;;;;;;;;;;;;19.73;35.53;94523.91;10479245;28;2130;-51
2023/02/25 07:50:05;;;;;;;;;;;;;;;19.74;35.15;94531.47;10470528;28;2000;-47
2023/02/25 07:55:05;;;;;;;;;;;;;;;19.76;35.23;94523.31;10472080;28;1985;-49
2023/02/25 08:00:09;;;;;;;;;;;;;;;19.80;35.24;94537.44;10474847;28;2094;-50
2023/02/25 08:05:10;;;;;;;;;;;;;;;19.81;35.04;94526.59;10471512;28;2181;-50
2023/02/25 08:10:11;;;;;;;;;;;;;;;19.83;35.23;94524.44;10462809;28;2168;-49
2023/02/25 08:15:11;;;;;;;;;;;;;;;19.85;35.31;94519.66;10464546;28;1980;-48
2023/02/25 08:20:12;;;;;;;;;;;;;;;19.86;35.20;94518.59;10477721;28;1948;-51
2023/02/25 08:25:13;;;;;;;;;;;;;;;19.86;35.71;94512.56;10468215;28;2001;-48
2023/02/25 08:30:14;;;;;;;;;;;;;;;19.85;35.67;94506.53;10474539;28;2063;-52
2023/02/25 08:35:15;;;;;;;;;;;;;;;19.85;35.63;94506.53;10438881;28;2032;-52
2023/02/25 08:40:15;;;;;;;;;;;;;;;19.83;35.94;94510.50;10471113;28;1941;-52
2023/02/25 08:45:16;;;;;;;;;;;;;;;19.84;35.59;94512.09;10478276;28;2024;-51
2023/02/25 08:50:17;;;;;;;;;;;;;;;19.81;35.62;94525.81;10468150;28;1929;-49
2023/02/25 08:55:26;;;;;;;;;;;;;;;19.77;36.25;94512.50;10475507;28;1996;-47
2023/02/25 09:00:27;;;;;;;;;;;;;;;19.75;35.93;94519.91;10468784;28;2356;-49
2023/02/25 09:05:28;;;;;;;;;;;;;;;19.71;36.23;94521.56;10472360;28;2089;-50
2023/02/25 09:10:29;;;;;;;;;;;;;;;19.70;36.24;94524.50;10432007;28;2018;-55
2023/02/25 09:15:31;;;;;;;;;;;;;;;19.65;36.71;94521.97;10452649;28;2267;-50
2023/02/25 09:20:33;;;;;;;;;;;;;;;19.64;38.15;94526.44;10466588;28;1909;-50
2023/02/25 09:25:34;;;;;;;;;;;;;;;19.72;37.26;94530.25;10468400;28;2199;-50
2023/02/25 09:30:35;;;;;;;;;;;;;;;19.76;37.87;94534.63;10452184;28;2051;-48
2023/02/25 09:35:36;;;;;;;;;;;;;;;19.78;38.23;94526.44;10468347;28;1956;-49
2023/02/25 09:40:38;;;;;;;;;;;;;;;19.83;39.27;94513.16;10466468;28;1968;-51
2023/02/25 09:45:38;;;;;;;;;;;;;;;19.90;38.51;94513.53;10482517;28;2070;-51
2023/02/25 09:50:40;;;;;;;;;;;;;;;20.00;38.93;94515.91;10458535;28;2025;-51
2023/02/25 09:55:46;;;;;;;;;;;;;;;20.03;38.24;94510.06;10479468;28;1988;-52
2023/02/25 10:00:53;;;;;;;;;;;;;;;20.07;38.42;94508.41;10451264;28;2033;-52
2023/02/25 10:06:18;;;;;;;;;;;;;;;20.14;38.09;94504.25;10462960;28;1968;-53
2023/02/25 10:11:29;;;;;;;;;;;;;;;20.16;38.09;94517.88;10463376;28;2060;-55
2023/02/25 10:16:36;;;;;;;;;;;;;;;20.18;38.11;94521.00;10456676;28;2059;-51
2023/02/25 10:21:36;;;;;;;;;;;;;;;20.22;36.99;94510.66;10455538;28;1873;-50
2023/02/25 10:26:38;;;;;;;;;;;;;;;20.30;36.78;94517.84;10486142;28;1906;-52
2023/02/25 10:31:38;;;;;;;;;;;;;;;20.38;36.92;94511.09;10489969;28;2043;-53
2023/02/25 10:36:42;;;;;;;;;;;;;;;20.46;36.93;94505.09;10460522;28;1979;-52
2023/02/25 10:41:43;;;;;;;;;;;;;;;20.52;37.55;94503.88;10476050;28;1948;-54
2023/02/25 10:47:00;;;;;;;;;;;;;;;20.59;38.17;94499.72;10478686;28;2034;-54
2023/02/25 10:52:02;;;;;;;;;;;;;;;20.69;37.80;94496.06;10479902;28;1920;-54
2023/02/25 10:57:07;;;;;;;;;;;;;;;20.79;37.92;94493.16;10477682;28;1946;-55
2023/02/25 11:02:17;;;;;;;;;;;;;;;20.88;37.72;94489.47;10485183;28;1888;-52
2023/02/25 11:07:33;;;;;;;;;;;;;;;20.96;38.17;94483.44;10478673;28;1897;-55
2023/02/25 11:12:42;;;;;;;;;;;;;;;21.02;38.37;94476.97;10489719;28;1976;-55
2023/02/25 11:17:43;;;;;;;;;;;;;;;21.09;39.04;94466.00;10483074;28;1949;-55
2023/02/25 11:22:45;;;;;;;;;;;;;;;21.12;39.11;94459.34;10488729;28;1880;-55
2023/02/25 11:27:53;;;;;;;;;;;;;;;21.13;39.10;94458.25;10491039;28;1914;-56
2023/02/25 11:33:01;;;;;;;;;;;;;;;21.18;39.42;94455.47;10483892;28;2210;-54
2023/02/25 11:38:12;;;;;;;;;;;;;;;21.22;39.82;94456.41;10479279;28;1994;-55
2023/02/25 11:43:23;;;;;;;;;;;;;;;21.25;40.34;94451.28;10483719;28;1929;-53
2023/02/25 11:48:28;;;;;;;;;;;;;;;21.26;40.31;94444.94;10486373;28;1937;-54
2023/02/25 11:53:28;;;;;;;;;;;;;;;21.33;41.11;94445.25;10462788;28;1865;-55
2023/02/25 11:58:38;;;;;;;;;;;;;;;21.33;41.40;94436.59;10482936;28;1903;-53
2023/02/25 12:03:45;;;;;;;;;;;;;;;21.33;41.29;94431.31;10473790;28;1840;-53
2023/02/25 12:08:54;;;;;;;;;;;;;;;21.35;41.96;94422.00;10483725;28;1942;-55
2023/02/25 12:13:55;;;;;;;;;;;;;;;21.41;42.60;94420.75;10491793;28;1999;-55
2023/02/25 12:19:01;;;;;;;;;;;;;;;21.45;42.90;94411.13;10481909;28;1913;-55
2023/02/25 12:24:23;;;;;;;;;;;;;;;21.51;41.59;94411.78;10472955;28;1909;-55
2023/02/25 12:29:31;;;;;;;;;;;;;;;21.46;41.92;94422.47;10458107;28;1943;-56
2023/02/25 12:34:31;;;;;;;;;;;;;;;21.42;40.22;94416.25;10463182;28;2063;-56
2023/02/25 12:39:36;;;;;;;;;;;;;;;21.28;37.89;94411.16;10480181;28;1960;-55
2023/02/25 12:44:36;;;;;;;;;;;;;;;21.19;39.11;94425.38;10469820;28;2027;-56
2023/02/25 12:49:41;;;;;;;;;;;;;;;21.23;40.77;94421.06;10478529;28;1974;-55
2023/02/25 12:54:44;;;;;;;;;;;;;;;21.21;39.46;94428.50;10474071;28;1995;-55
2023/02/25 13:00:04;;;;;;;;;;;;;;;21.25;41.50;94413.59;10480105;28;1987;-55
2023/02/25 13:05:23;;;;;;;;;;;;;;;21.30;41.34;94418.75;10468321;28;2226;-56
2023/02/25 13:10:46;;;;;;;;;;;;;;;21.29;39.25;94415.31;10470425;28;2046;-54
2023/02/25 13:16:05;;;;;;;;;;;;;;;21.34;41.40;94417.81;10455088;28;2007;-56
2023/02/25 13:21:12;;;;;;;;;;;;;;;21.46;42.08;94407.44;10468426;28;2028;-56
2023/02/25 13:26:17;;;;;;;;;;;;;;;21.54;41.48;94413.78;10461978;28;2134;-54
2023/02/25 13:31:30;;;;;;;;;;;;;;;21.54;41.01;94400.59;10461484;28;2137;-55
2023/02/25 13:36:48;;;;;;;;;;;;;;;21.56;40.66;94401.06;10467245;28;2036;-55
2023/02/25 13:42:05;;;;;;;;;;;;;;;21.55;40.38;94399.50;10470700;28;1936;-57
2023/02/25 13:47:05;;;;;;;;;;;;;;;21.52;40.58;94413.31;10447574;28;2070;-56
2023/02/25 13:52:44;;;;;;;;;;;;;;;21.43;39.65;94404.66;10470402;28;2052;-53
2023/02/25 13:57:44;;;;;;;;;;;;;;;21.33;39.83;94415.50;10436042;28;2064;-52
2023/02/25 14:03:03;;;;;;;;;;;;;;;21.28;39.45;94411.16;10460963;28;2019;-55
2023/02/25 14:08:23;;;;;;;;;;;;;;;21.28;39.70;94416.44;10466570;28;1917;-54
2023/02/25 14:13:33;;;;;;;;;;;;;;;21.23;40.02;94432.38;10454561;28;1975;-53
2023/02/25 14:18:57;;;;;;;;;;;;;;;21.21;40.63;94436.41;10468334;28;2114;-53
2023/02/25 14:24:06;;;;;;;;;;;;;;;21.18;40.48;94437.03;10444203;28;2200;-53
2023/02/25 14:29:08;;;;;;;;;;;;;;;21.16;41.10;94444.47;10468002;28;2035;-58
2023/02/25 14:34:14;;;;;;;;;;;;;;;21.00;38.32;94442.22;10466092;28;2091;-52
2023/02/25 14:39:26;;;;;;;;;;;;;;;21.00;39.51;94452.75;10486501;28;1934;-54
2023/02/25 14:44:47;;;;;;;;;;;;;;;21.03;39.99;94451.41;10489320;28;1918;-55
2023/02/25 14:49:56;;;;;;;;;;;;;;;21.06;39.62;94456.84;10490311;28;1965;-54
2023/02/25 14:54:57;;;;;;;;;;;;;;;21.10;38.92;94445.69;10493766;28;1849;-54
2023/02/25 15:00:14;;;;;;;;;;;;;;;21.14;39.07;94454.53;10483638;28;1891;-55
2023/02/25 15:05:22;;;;;;;;;;;;;;;21.21;38.28;94453.00;10489007;28;1929;-56
2023/02/25 15:10:24;;;;;;;;;;;;;;;21.25;38.13;94448.66;10469802;28;1997;-53
2023/02/25 15:15:44;;;;;;;;;;;;;;;21.32;37.50;94448.19;10479368;28;1861;-54
2023/02/25 15:20:45;;;;;;;;;;;;;;;21.36;37.54;94449.13;10479558;28;1938;-52
2023/02/25 15:26:11;;;;;;;;;;;;;;;21.41;37.51;94451.63;10457537;28;2011;-54
2023/02/25 15:31:32;;;;;;;;;;;;;;;21.44;36.68;94462.31;10480013;28;1920;-56
2023/02/25 15:36:43;;;;;;;;;;;;;;;21.37;36.42;94475.19;10486967;28;1882;-55
2023/02/25 15:41:44;;;;;;;;;;;;;;;21.40;37.53;94482.47;10462864;28;2018;-52
2023/02/25 15:46:45;;;;;;;;;;;;;;;21.50;36.81;94473.47;10476651;28;1972;-54
2023/02/25 15:51:45;;;;;;;;;;;;;;;21.55;37.47;94478.63;10478523;28;1876;-53
2023/02/25 15:56:47;;;;;;;;;;;;;;;21.45;36.07;94476.28;10488373;28;1809;-53
2023/02/25 16:01:48;;;;;;;;;;;;;;;21.48;35.83;94475.66;10481990;28;1961;-55
2023/02/25 16:06:48;;;;;;;;;;;;;;;21.50;35.65;94489.31;10489047;28;1977;-54
2023/02/25 16:11:50;;;;;;;;;;;;;;;21.49;35.52;94490.41;10476579;28;1916;-54
2023/02/25 16:16:53;;;;;;;;;;;;;;;21.50;35.31;94486.66;10474635;28;1904;-54
2023/02/25 16:21:55;;;;;;;;;;;;;;;21.51;35.36;94491.66;10482467;28;2028;-54
2023/02/25 16:27:05;;;;;;;;;;;;;;;21.53;35.19;94499.25;10464387;28;2009;-53
2023/02/25 16:32:27;;;;;;;;;;;;;;;21.54;35.91;94506.06;10479221;28;1885;-55
2023/02/25 16:37:36;;;;;;;;;;;;;;;21.56;35.00;94506.53;10474607;28;1996;-53
2023/02/25 16:42:36;;;;;;;;;;;;;;;21.56;34.52;94512.56;10467062;28;2220;-53
2023/02/25 16:47:37;;;;;;;;;;;;;;;21.57;34.87;94511.50;10481916;28;2040;-54
2023/02/25 16:52:39;;;;;;;;;;;;;;;21.59;35.00;94513.84;10484974;28;1896;-54
2023/02/25 16:57:39;;;;;;;;;;;;;;;21.52;34.05;94510.88;10483359;28;1849;-53
2023/02/25 17:02:46;;;;;;;;;;;;;;;21.79;35.00;94519.28;10453054;28;2237;-58
2023/02/25 17:07:48;;;;;;;;;;;;;;;21.89;33.64;94520.84;10483989;28;1982;-55
2023/02/25 17:12:48;;;;;;;;;;;;;;;21.99;34.83;94532.97;10463116;28;1911;-53
2023/02/25 17:17:50;;;;;;;;;;;;;;;22.09;34.99;94532.66;10484890;28;1969;-55
2023/02/25 17:22:51;;;;;;;;;;;;;;;22.15;34.84;94547.22;10484935;28;1921;-55
2023/02/25 17:27:52;;;;;;;;;;;;;;;22.19;34.76;94553.44;10469809;28;1977;-51
2023/02/25 17:32:57;;;;;;;;;;;;;;;22.23;35.43;94557.00;10485648;28;1864;-54
2023/02/25 17:37:57;;;;;;;;;;;;;;;22.25;34.81;94562.75;10476621;28;1955;-57
2023/02/25 17:43:24;;;;;;;;;;;;;;;22.32;38.73;94576.22;10485559;28;1822;-54
2023/02/25 17:48:25;;;;;;;;;;;;;;;22.31;38.26;94612.44;10476712;28;1991;-50
2023/02/25 17:53:35;;;;;;;;;;;;;;;22.33;37.64;94625.31;10477361;28;1957;-54
2023/02/25 17:58:35;;;;;;;;;;;;;;;22.31;37.46;94640.69;10480561;28;2317;-53
2023/02/25 18:03:41;;;;;;;;;;;;;;;22.28;38.26;94644.72;10483047;28;1912;-55
2023/02/25 18:08:52;;;;;;;;;;;;;;;22.30;38.67;94645.19;10486972;28;1973;-49
2023/02/25 18:13:52;;;;;;;;;;;;;;;22.27;37.81;94647.69;10474953;28;2008;-54
2023/02/25 18:18:52;;;;;;;;;;;;;;;22.20;36.89;94657.91;10496203;28;1895;-54
2023/02/25 18:23:53;;;;;;;;;;;;;;;22.17;37.43;94669.09;10488828;28;1965;-52
2023/02/25 18:28:54;;;;;;;;;;;;;;;22.15;36.77;94668.63;10476681;28;1973;-53
2023/02/25 18:33:54;;;;;;;;;;;;;;;22.13;36.40;94676.09;10479107;28;1897;-54
2023/02/25 18:38:56;;;;;;;;;;;;;;;22.11;35.91;94673.78;10469936;28;1910;-54
2023/02/25 18:43:57;;;;;;;;;;;;;;;22.08;35.14;94676.22;10485571;28;1944;-54
2023/02/25 18:48:58;;;;;;;;;;;;;;;22.09;36.50;94678.56;10491299;28;1943;-54
2023/02/25 18:53:59;;;;;;;;;;;;;;;22.07;35.50;94674.69;10489945;28;1892;-54
2023/02/25 18:59:00;;;;;;;;;;;;;;;22.06;35.90;94675.75;10492557;28;2104;-53
2023/02/25 19:04:01;;;;;;;;;;;;;;;22.05;35.07;94669.69;10471844;28;1873;-50
2023/02/25 19:09:02;;;;;;;;;;;;;;;22.03;35.31;94666.59;10492897;28;1920;-53
2023/02/25 19:14:04;;;;;;;;;;;;;;;22.02;34.88;94664.25;10492247;28;1865;-53
2023/02/25 19:19:04;;;;;;;;;;;;;;;22.02;34.74;94667.69;10471642;28;1891;-49
2023/02/25 19:24:08;;;;;;;;;;;;;;;22.05;34.80;94667.06;10483667;28;1925;-53
2023/02/25 19:29:10;;;;;;;;;;;;;;;22.09;38.14;94673.28;10470248;28;1944;-55
2023/02/25 19:34:10;;;;;;;;;;;;;;;22.07;35.86;94674.69;10488345;28;1991;-53
2023/02/25 19:39:10;;;;;;;;;;;;;;;22.05;35.74;94672.34;10483065;28;1828;-54
2023/02/25 19:44:11;;;;;;;;;;;;;;;22.03;35.55;94674.50;10483159;28;1949;-54
2023/02/25 19:49:11;;;;;;;;;;;;;;;22.04;35.38;94677.94;10484676;28;1834;-53
2023/02/25 19:54:12;;;;;;;;;;;;;;;22.01;34.87;94676.69;10487820;28;1888;-54
2023/02/25 19:59:12;;;;;;;;;;;;;;;22.00;34.50;94684.91;10486465;28;1878;-54
2023/02/25 20:04:12;;;;;;;;;;;;;;;22.00;34.57;94677.78;10483337;28;1897;-54
2023/02/25 20:09:13;;;;;;;;;;;;;;;22.00;34.74;94679.63;10477425;28;2041;-54
2023/02/25 20:14:16;;;;;;;;;;;;;;;21.97;34.33;94683.66;10483144;28;1846;-52
2023/02/25 20:19:16;;;;;;;;;;;;;;;22.02;37.55;94680.88;10483810;28;2138;-55
2023/02/25 20:24:17;;;;;;;;;;;;;;;22.03;36.60;94679.78;10487883;28;1974;-52
2023/02/25 20:29:18;;;;;;;;;;;;;;;21.98;34.58;94674.66;10467959;28;1933;-54
2023/02/25 20:34:19;;;;;;;;;;;;;;;21.95;36.60;94671.88;10478034;28;1933;-52
2023/02/25 20:39:26;;;;;;;;;;;;;;;21.81;34.87;94678.03;10483521;28;1860;-53
2023/02/25 20:44:26;;;;;;;;;;;;;;;21.70;35.18;94681.25;10463727;28;1961;-55
2023/02/25 20:49:27;;;;;;;;;;;;;;;21.64;36.14;94695.63;10480333;28;1943;-53
2023/02/25 20:54:27;;;;;;;;;;;;;;;21.56;36.93;94707.72;10482154;28;1908;-56
2023/02/25 20:59:27;;;;;;;;;;;;;;;21.49;36.29;94709.25;10479898;28;1974;-53
2023/02/25 21:04:29;;;;;;;;;;;;;;;21.41;36.43;94712.63;10486487;28;1961;-51
2023/02/25 21:09:29;;;;;;;;;;;;;;;21.34;36.75;94709.63;10490211;28;1872;-55
2023/02/25 21:14:30;;;;;;;;;;;;;;;21.28;38.06;94714.25;10474718;28;2059;-53
2023/02/25 21:19:31;;;;;;;;;;;;;;;21.21;36.65;94715.75;10472714;28;1989;-51
2023/02/25 21:24:32;;;;;;;;;;;;;;;21.14;36.42;94715.41;10467724;28;2008;-55
2023/02/25 21:29:32;;;;;;;;;;;;;;;21.05;36.06;94716.16;10478448;28;2036;-54
2023/02/25 21:34:33;;;;;;;;;;;;;;;20.98;35.76;94710.47;10471865;28;2237;-53
2023/02/25 21:39:33;;;;;;;;;;;;;;;20.97;37.80;94716.84;10470667;28;2041;-56
2023/02/25 21:44:33;;;;;;;;;;;;;;;20.90;38.78;94713.84;10468290;28;2127;-56
2023/02/25 21:49:33;;;;;;;;;;;;;;;20.88;38.87;94721.25;10479270;28;1955;-53
2023/02/25 21:54:34;;;;;;;;;;;;;;;20.83;39.63;94721.41;10472340;28;1953;-51
2023/02/25 21:59:35;;;;;;;;;;;;;;;20.77;39.35;94719.94;10467910;28;1933;-53
2023/02/25 22:04:46;;;;;;;;;;;;;;;20.73;39.64;94716.34;10452586;28;2743;-53
2023/02/25 22:09:47;;;;;;;;;;;;;;;20.67;39.71;94714.91;10455048;28;2043;-55
2023/02/25 22:14:47;;;;;;;;;;;;;;;20.63;39.23;94716.56;10466829;28;2032;-54
2023/02/25 22:19:47;;;;;;;;;;;;;;;20.56;37.57;94721.50;10477047;28;1933;-55
2023/02/25 22:24:48;;;;;;;;;;;;;;;20.49;37.71;94722.97;10472319;28;1984;-55
2023/02/25 22:29:48;;;;;;;;;;;;;;;20.42;36.94;94731.28;10477981;28;1993;-57
2023/02/25 22:34:49;;;;;;;;;;;;;;;20.38;36.77;94732.16;10464512;28;2052;-57
2023/02/25 22:39:50;;;;;;;;;;;;;;;20.34;36.67;94729.31;10474735;28;1951;-55
2023/02/25 22:44:52;;;;;;;;;;;;;;;20.31;37.04;94735.19;10461375;28;1975;-55
2023/02/25 22:49:53;;;;;;;;;;;;;;;20.27;36.37;94729.75;10474964;28;2006;-56
2023/02/25 22:54:54;;;;;;;;;;;;;;;20.21;35.62;94736.19;10471163;28;2034;-53
2023/02/25 22:59:55;;;;;;;;;;;;;;;20.16;35.17;94735.47;10471089;28;1947;-55
2023/02/25 23:04:55;;;;;;;;;;;;;;;20.10;34.74;94744.56;10475283;28;1951;-56
2023/02/25 23:09:56;;;;;;;;;;;;;;;20.05;34.60;94742.03;10478239;28;1959;-55
2023/02/25 23:14:56;;;;;;;;;;;;;;;20.01;34.35;94749.72;10479331;28;2199;-55
2023/02/25 23:19:59;;;;;;;;;;;;;;;19.99;34.43;94753.72;10481032;28;1990;-55
2023/02/25 23:25:02;;;;;;;;;;;;;;;19.95;34.25;94753.53;10464251;28;1963;-54
2023/02/25 23:30:03;;;;;;;;;;;;;;;19.93;34.12;94758.28;10473564;28;2055;-53
2023/02/25 23:35:04;;;;;;;;;;;;;;;19.90;34.02;94758.09;10479956;28;2123;-55
2023/02/25 23:40:14;;;;;;;;;;;;;;;19.88;34.20;94762.88;10480627;28;2023;-53
2023/02/25 23:45:15;;;;;;;;;;;;;;;19.85;33.98;94758.19;10472092;28;1975;-53
2023/02/25 23:50:16;;;;;;;;;;;;;;;19.84;33.92;94746.13;10481309;28;1944;-54
2023/02/25 23:55:16;;;;;;;;;;;;;;;19.81;33.80;94751.97;10479257;28;2124;-56
